Notre-Dame-du-Portage, Canada
Current Conditions -  °F | °C
As of 1:53 PM on Friday 24 Oct 2014 (Local Time) from KFVE Reporting Station
Moderate Rain Moderate Rain  
Wind Chill: 31°   Ceiling: 4600
Heat Index: 39°   Visibility: 5mi
Dew Point: 37°   Wind: 14mph
Humidity: 93%   Direction: 360°N
Pressure: 29.75"   Gusts: NA
Location:  47.76°N, 69.61°W
Report Text: KFVE 241753Z AUTO 36012KT 5SM RA BR OVC046 04/03 A2975 RMK AO2 SLP079 P0005 60016 T00390028 10061 20039 58020
Loading
Personal Weather Stations






























Interactive Weather Map
Tropical Storm Tracking
New forecast layout! Learn more

10-Day Weather Forecast

Advertisements
Track Severe Weather on mobile